Atlasburg, PA

12:50 PM EST on February 10, 2016 (GMT -0500)
Burgettstown PA | | Change Station
CLOSE
Current Station
Personal Weather Station
Location: Burgsttown Pa, PA
Elevation: 988 ft
Nearby Weather Stations

Elev 988 ft 40.38 °N, 80.39 °W | Updated 4 minutes ago

Snow
Snow
20.8 °F
Feels Like 13 °F
N
5.8
Wind Variable Wind from SW

Today
High -- | Low -- °F
--% Chance of Precip.
Yesterday
High -- | Low -- °F
Precip. -- in
Pressure 29.88 in
Visibility 2.5 miles
Clouds Few 1200 ft
Overcast 1900 ft
Windchill 13 °F
Dew Point 19 °F
Humidity 94%
Rainfall 0.00 in
Snow Depth Not available.
7:21 AM 5:50 PM
Waxing Crescent, 6% visible
METAR KPIT 101651Z 25012G20KT 2 1/2SM -SN FEW012 OVC019 M08/M12 A2980 RMK AO2 SLP117 P0000 T10781122
Pressure 29.88 in
Visibility 2.5 miles
Clouds Few 1200 ft
Overcast 1900 ft
Windchill 13 °F
Dew Point 19 °F
Humidity 94%
Rainfall 0.00 in
Snow Depth Not available.
7:21 AM 5:50 PM
Waxing Crescent, 6% visible
METAR KPIT 101651Z 25012G20KT 2 1/2SM -SN FEW012 OVC019 M08/M12 A2980 RMK AO2 SLP117 P0000 T10781122

10-Day Weather Forecast

Almanac

Astronomy

Feb. 10, 2016 Rise Set
Actual Time
Civil Twilight
Nautical Twilight
Astronomical Twilight
Moon
Length of Visible Light
Length of Day
Tomorrow will be .
, % of the Moon is Illuminated

Today's Extremes

State Highs State Lows

Community

WunderPhotos

Upload Photos

1,891,899 photos uploaded!

WunderBlog® & News

Nearby

Air Quality

  Air Quality AQ Index Pollutant
Not available.

Snow Depth

Station Depth Elevation

Earthquake Activity

City Distance Mag. Time & Date
Minimum magnitude displayed is 2.5.

Coastal Water Temperatures

Place Temperature

Stations

Nearby Weather Stations

Station Location Temp. Windchill Dew Point Humidity Wind Precip. Elev Updated Type
                   

Watches & Warnings

There are currently no watches in effect.